sensor_id;sensor_type;location;lat;lon;timestamp;temperature;humidity
68217;DHT22;55037;52.354;4.992;2023-03-01T00:01:04;3.20;88.30
68217;DHT22;55037;52.354;4.992;2023-03-01T00:03:33;3.20;88.40
68217;DHT22;55037;52.354;4.992;2023-03-01T00:06:01;3.20;87.60
68217;DHT22;55037;52.354;4.992;2023-03-01T00:08:29;3.10;88.30
68217;DHT22;55037;52.354;4.992;2023-03-01T00:13:28;3.10;88.30
68217;DHT22;55037;52.354;4.992;2023-03-01T00:18:23;3.10;87.60
68217;DHT22;55037;52.354;4.992;2023-03-01T00:20:52;3.10;88.40
68217;DHT22;55037;52.354;4.992;2023-03-01T00:23:19;3.00;88.30
68217;DHT22;55037;52.354;4.992;2023-03-01T00:25:47;3.00;88.50
68217;DHT22;55037;52.354;4.992;2023-03-01T00:28:14;3.00;88.50
68217;DHT22;55037;52.354;4.992;2023-03-01T00:30:42;3.00;88.30
68217;DHT22;55037;52.354;4.992;2023-03-01T00:33:09;3.00;88.40
68217;DHT22;55037;52.354;4.992;2023-03-01T00:35:37;3.00;88.60
68217;DHT22;55037;52.354;4.992;2023-03-01T00:38:05;2.90;88.50
68217;DHT22;55037;52.354;4.992;2023-03-01T00:40:34;2.90;88.50
68217;DHT22;55037;52.354;4.992;2023-03-01T00:43:02;2.90;88.40
68217;DHT22;55037;52.354;4.992;2023-03-01T00:45:29;2.90;88.50
68217;DHT22;55037;52.354;4.992;2023-03-01T00:47:58;2.80;88.60
68217;DHT22;55037;52.354;4.992;2023-03-01T00:50:25;2.80;88.40
68217;DHT22;55037;52.354;4.992;2023-03-01T00:52:54;2.80;88.90
68217;DHT22;55037;52.354;4.992;2023-03-01T00:55:22;2.80;89.00
68217;DHT22;55037;52.354;4.992;2023-03-01T00:57:50;2.80;88.80
68217;DHT22;55037;52.354;4.992;2023-03-01T01:00:18;2.80;88.60
68217;DHT22;55037;52.354;4.992;2023-03-01T01:02:47;2.80;89.10
68217;DHT22;55037;52.354;4.992;2023-03-01T01:05:14;2.80;89.10
68217;DHT22;55037;52.354;4.992;2023-03-01T01:07:48;2.80;88.80
68217;DHT22;55037;52.354;4.992;2023-03-01T01:10:15;2.80;88.90
68217;DHT22;55037;52.354;4.992;2023-03-01T01:12:45;2.80;88.90
68217;DHT22;55037;52.354;4.992;2023-03-01T01:15:13;2.80;89.00
68217;DHT22;55037;52.354;4.992;2023-03-01T01:17:43;2.80;88.80
68217;DHT22;55037;52.354;4.992;2023-03-01T01:20:11;2.80;88.90
68217;DHT22;55037;52.354;4.992;2023-03-01T01:22:38;2.80;89.10
68217;DHT22;55037;52.354;4.992;2023-03-01T01:25:08;2.80;89.10
68217;DHT22;55037;52.354;4.992;2023-03-01T01:27:37;2.80;88.90
68217;DHT22;55037;52.354;4.992;2023-03-01T01:30:04;2.70;88.60
68217;DHT22;55037;52.354;4.992;2023-03-01T01:32:33;2.70;88.60
68217;DHT22;55037;52.354;4.992;2023-03-01T01:35:00;2.70;88.80
68217;DHT22;55037;52.354;4.992;2023-03-01T01:37:28;2.60;88.90
68217;DHT22;55037;52.354;4.992;2023-03-01T01:39:59;2.60;88.80
68217;DHT22;55037;52.354;4.992;2023-03-01T01:42:26;2.60;88.80
68217;DHT22;55037;52.354;4.992;2023-03-01T01:45:47;2.60;88.80
68217;DHT22;55037;52.354;4.992;2023-03-01T01:48:13;2.60;88.90
68217;DHT22;55037;52.354;4.992;2023-03-01T01:50:41;2.60;89.40
68217;DHT22;55037;52.354;4.992;2023-03-01T01:53:16;2.60;89.40
68217;DHT22;55037;52.354;4.992;2023-03-01T01:55:51;2.60;89.20
68217;DHT22;55037;52.354;4.992;2023-03-01T01:58:21;2.60;89.00
68217;DHT22;55037;52.354;4.992;2023-03-01T02:00:48;2.60;89.10
68217;DHT22;55037;52.354;4.992;2023-03-01T02:03:23;2.60;89.20
68217;DHT22;55037;52.354;4.992;2023-03-01T02:06:00;2.60;89.00
68217;DHT22;55037;52.354;4.992;2023-03-01T02:08:32;2.60;89.40
68217;DHT22;55037;52.354;4.992;2023-03-01T02:11:01;2.60;89.50
68217;DHT22;55037;52.354;4.992;2023-03-01T02:13:31;2.60;89.40
68217;DHT22;55037;52.354;4.992;2023-03-01T02:16:02;2.60;89.30
68217;DHT22;55037;52.354;4.992;2023-03-01T02:18:29;2.60;89.20
68217;DHT22;55037;52.354;4.992;2023-03-01T02:21:13;2.60;89.30
68217;DHT22;55037;52.354;4.992;2023-03-01T02:23:42;2.60;89.30
68217;DHT22;55037;52.354;4.992;2023-03-01T02:26:45;2.60;89.10
68217;DHT22;55037;52.354;4.992;2023-03-01T02:29:13;2.60;89.20
68217;DHT22;55037;52.354;4.992;2023-03-01T02:31:40;2.50;89.30
68217;DHT22;55037;52.354;4.992;2023-03-01T02:34:18;2.50;89.10
68217;DHT22;55037;52.354;4.992;2023-03-01T02:37:15;2.50;89.10
68217;DHT22;55037;52.354;4.992;2023-03-01T02:39:48;2.50;89.10
68217;DHT22;55037;52.354;4.992;2023-03-01T02:42:22;2.50;89.00
68217;DHT22;55037;52.354;4.992;2023-03-01T02:44:53;2.50;88.70
68217;DHT22;55037;52.354;4.992;2023-03-01T02:47:20;2.40;88.70
68217;DHT22;55037;52.354;4.992;2023-03-01T02:49:48;2.40;88.90
68217;DHT22;55037;52.354;4.992;2023-03-01T02:55:00;2.40;88.90
68217;DHT22;55037;52.354;4.992;2023-03-01T02:57:30;2.30;89.00
68217;DHT22;55037;52.354;4.992;2023-03-01T03:00:03;2.30;88.90
68217;DHT22;55037;52.354;4.992;2023-03-01T03:02:36;2.30;88.60
68217;DHT22;55037;52.354;4.992;2023-03-01T03:07:37;2.20;88.90
68217;DHT22;55037;52.354;4.992;2023-03-01T03:10:07;2.20;88.80
68217;DHT22;55037;52.354;4.992;2023-03-01T03:12:35;2.20;88.90
68217;DHT22;55037;52.354;4.992;2023-03-01T03:15:03;2.20;89.00
68217;DHT22;55037;52.354;4.992;2023-03-01T03:17:36;2.20;89.00
68217;DHT22;55037;52.354;4.992;2023-03-01T03:20:05;2.10;89.10
68217;DHT22;55037;52.354;4.992;2023-03-01T03:22:33;2.20;89.00
68217;DHT22;55037;52.354;4.992;2023-03-01T03:25:00;2.10;89.00
68217;DHT22;55037;52.354;4.992;2023-03-01T03:27:28;2.10;89.00
68217;DHT22;55037;52.354;4.992;2023-03-01T03:29:55;2.10;89.10
68217;DHT22;55037;52.354;4.992;2023-03-01T03:32:22;2.10;89.10
68217;DHT22;55037;52.354;4.992;2023-03-01T03:34:50;2.10;89.50
68217;DHT22;55037;52.354;4.992;2023-03-01T03:37:17;2.10;89.20
68217;DHT22;55037;52.354;4.992;2023-03-01T03:40:05;2.00;89.00
68217;DHT22;55037;52.354;4.992;2023-03-01T03:42:42;2.10;89.30
68217;DHT22;55037;52.354;4.992;2023-03-01T03:45:09;2.00;89.10
68217;DHT22;55037;52.354;4.992;2023-03-01T03:47:36;2.00;88.80
68217;DHT22;55037;52.354;4.992;2023-03-01T03:50:04;2.00;89.70
68217;DHT22;55037;52.354;4.992;2023-03-01T03:52:31;2.00;89.40
68217;DHT22;55037;52.354;4.992;2023-03-01T03:54:58;1.90;89.40
68217;DHT22;55037;52.354;4.992;2023-03-01T03:57:25;1.90;89.60
68217;DHT22;55037;52.354;4.992;2023-03-01T03:59:52;2.00;89.80
68217;DHT22;55037;52.354;4.992;2023-03-01T04:02:20;2.00;89.70
68217;DHT22;55037;52.354;4.992;2023-03-01T04:04:51;2.00;89.70
68217;DHT22;55037;52.354;4.992;2023-03-01T04:07:18;2.00;89.90
68217;DHT22;55037;52.354;4.992;2023-03-01T04:09:45;2.00;89.70
68217;DHT22;55037;52.354;4.992;2023-03-01T04:12:13;2.00;89.80
68217;DHT22;55037;52.354;4.992;2023-03-01T04:14:40;2.00;90.00
68217;DHT22;55037;52.354;4.992;2023-03-01T04:17:07;2.10;90.00
68217;DHT22;55037;52.354;4.992;2023-03-01T04:19:34;2.10;89.90
68217;DHT22;55037;52.354;4.992;2023-03-01T04:22:03;2.10;89.60
68217;DHT22;55037;52.354;4.992;2023-03-01T04:24:36;2.10;89.60
68217;DHT22;55037;52.354;4.992;2023-03-01T04:27:03;2.00;89.30
68217;DHT22;55037;52.354;4.992;2023-03-01T04:29:30;2.00;89.10
68217;DHT22;55037;52.354;4.992;2023-03-01T04:31:57;2.00;89.10
68217;DHT22;55037;52.354;4.992;2023-03-01T04:34:25;2.00;89.50
68217;DHT22;55037;52.354;4.992;2023-03-01T04:36:53;2.00;89.70
68217;DHT22;55037;52.354;4.992;2023-03-01T04:39:21;2.00;89.60
68217;DHT22;55037;52.354;4.992;2023-03-01T04:41:48;2.00;89.50
68217;DHT22;55037;52.354;4.992;2023-03-01T04:44:16;2.00;89.20
68217;DHT22;55037;52.354;4.992;2023-03-01T04:46:43;1.90;89.00
68217;DHT22;55037;52.354;4.992;2023-03-01T04:49:10;1.90;89.50
68217;DHT22;55037;52.354;4.992;2023-03-01T04:51:37;2.00;89.50
68217;DHT22;55037;52.354;4.992;2023-03-01T04:54:04;2.00;89.70
68217;DHT22;55037;52.354;4.992;2023-03-01T04:56:35;2.00;89.40
68217;DHT22;55037;52.354;4.992;2023-03-01T04:59:02;2.00;89.30
68217;DHT22;55037;52.354;4.992;2023-03-01T05:01:32;2.00;89.40
68217;DHT22;55037;52.354;4.992;2023-03-01T05:04:00;2.00;89.50
68217;DHT22;55037;52.354;4.992;2023-03-01T05:06:30;2.00;89.60
68217;DHT22;55037;52.354;4.992;2023-03-01T05:08:57;2.00;89.70
68217;DHT22;55037;52.354;4.992;2023-03-01T05:11:24;2.00;89.80
68217;DHT22;55037;52.354;4.992;2023-03-01T05:13:52;2.10;90.00
68217;DHT22;55037;52.354;4.992;2023-03-01T05:16:22;2.10;90.00
68217;DHT22;55037;52.354;4.992;2023-03-01T05:18:49;2.10;89.90
68217;DHT22;55037;52.354;4.992;2023-03-01T05:21:17;2.10;90.40
68217;DHT22;55037;52.354;4.992;2023-03-01T05:23:45;2.10;89.70
68217;DHT22;55037;52.354;4.992;2023-03-01T05:26:14;2.10;89.50
68217;DHT22;55037;52.354;4.992;2023-03-01T05:28:54;2.10;89.60
68217;DHT22;55037;52.354;4.992;2023-03-01T05:31:26;2.10;89.80
68217;DHT22;55037;52.354;4.992;2023-03-01T05:33:53;2.20;89.90
68217;DHT22;55037;52.354;4.992;2023-03-01T05:36:20;2.20;90.00
68217;DHT22;55037;52.354;4.992;2023-03-01T05:38:47;2.20;89.90
68217;DHT22;55037;52.354;4.992;2023-03-01T05:41:15;2.20;89.70
68217;DHT22;55037;52.354;4.992;2023-03-01T05:43:44;2.20;89.80
68217;DHT22;55037;52.354;4.992;2023-03-01T05:46:12;2.20;89.00
68217;DHT22;55037;52.354;4.992;2023-03-01T05:48:40;2.20;89.70
68217;DHT22;55037;52.354;4.992;2023-03-01T05:51:07;2.20;89.70
68217;DHT22;55037;52.354;4.992;2023-03-01T05:53:34;2.20;89.70
68217;DHT22;55037;52.354;4.992;2023-03-01T05:56:05;2.20;88.70
68217;DHT22;55037;52.354;4.992;2023-03-01T05:58:33;2.20;89.50
68217;DHT22;55037;52.354;4.992;2023-03-01T06:01:00;2.20;89.30
68217;DHT22;55037;52.354;4.992;2023-03-01T06:03:27;2.20;89.20
68217;DHT22;55037;52.354;4.992;2023-03-01T06:05:58;2.20;89.20
68217;DHT22;55037;52.354;4.992;2023-03-01T06:08:25;2.20;89.30
68217;DHT22;55037;52.354;4.992;2023-03-01T06:10:54;2.20;89.30
68217;DHT22;55037;52.354;4.992;2023-03-01T06:13:22;2.10;89.10
68217;DHT22;55037;52.354;4.992;2023-03-01T06:15:50;2.10;89.00
68217;DHT22;55037;52.354;4.992;2023-03-01T06:18:17;2.10;89.10
68217;DHT22;55037;52.354;4.992;2023-03-01T06:20:45;2.10;89.10
68217;DHT22;55037;52.354;4.992;2023-03-01T06:23:12;2.00;88.80
68217;DHT22;55037;52.354;4.992;2023-03-01T06:25:39;2.00;88.90
68217;DHT22;55037;52.354;4.992;2023-03-01T06:28:06;2.00;88.80
68217;DHT22;55037;52.354;4.992;2023-03-01T06:30:33;2.00;88.90
68217;DHT22;55037;52.354;4.992;2023-03-01T06:33:00;2.00;89.10
68217;DHT22;55037;52.354;4.992;2023-03-01T06:35:30;2.00;89.00
68217;DHT22;55037;52.354;4.992;2023-03-01T06:37:59;2.00;89.10
68217;DHT22;55037;52.354;4.992;2023-03-01T06:40:27;2.00;89.00
68217;DHT22;55037;52.354;4.992;2023-03-01T06:42:55;2.00;89.10
68217;DHT22;55037;52.354;4.992;2023-03-01T06:45:22;2.00;89.30
68217;DHT22;55037;52.354;4.992;2023-03-01T06:47:50;2.10;89.70
68217;DHT22;55037;52.354;4.992;2023-03-01T06:50:18;2.20;89.70
68217;DHT22;55037;52.354;4.992;2023-03-01T06:52:45;2.20;89.50
68217;DHT22;55037;52.354;4.992;2023-03-01T06:55:13;2.20;89.50
68217;DHT22;55037;52.354;4.992;2023-03-01T06:57:40;2.20;89.40
68217;DHT22;55037;52.354;4.992;2023-03-01T07:00:08;2.30;89.40
68217;DHT22;55037;52.354;4.992;2023-03-01T07:02:35;2.30;89.50
68217;DHT22;55037;52.354;4.992;2023-03-01T07:05:03;2.40;89.60
68217;DHT22;55037;52.354;4.992;2023-03-01T07:07:30;2.50;90.00
68217;DHT22;55037;52.354;4.992;2023-03-01T07:09:57;2.60;90.00
68217;DHT22;55037;52.354;4.992;2023-03-01T07:12:25;2.70;90.00
68217;DHT22;55037;52.354;4.992;2023-03-01T07:14:52;2.80;90.00
68217;DHT22;55037;52.354;4.992;2023-03-01T07:17:19;2.80;89.90
68217;DHT22;55037;52.354;4.992;2023-03-01T07:19:46;2.90;89.80
68217;DHT22;55037;52.354;4.992;2023-03-01T07:22:14;3.00;89.80
68217;DHT22;55037;52.354;4.992;2023-03-01T07:24:42;3.10;89.60
68217;DHT22;55037;52.354;4.992;2023-03-01T07:27:09;3.20;89.60
68217;DHT22;55037;52.354;4.992;2023-03-01T07:29:36;3.30;89.60
68217;DHT22;55037;52.354;4.992;2023-03-01T07:32:05;3.50;89.80
68217;DHT22;55037;52.354;4.992;2023-03-01T07:34:33;3.60;90.00
68217;DHT22;55037;52.354;4.992;2023-03-01T07:37:00;3.80;90.00
68217;DHT22;55037;52.354;4.992;2023-03-01T07:39:27;3.90;90.00
68217;DHT22;55037;52.354;4.992;2023-03-01T07:41:54;4.20;89.70
68217;DHT22;55037;52.354;4.992;2023-03-01T07:44:22;4.40;89.50
68217;DHT22;55037;52.354;4.992;2023-03-01T07:46:49;4.60;89.40
68217;DHT22;55037;52.354;4.992;2023-03-01T07:49:18;4.80;88.80
68217;DHT22;55037;52.354;4.992;2023-03-01T07:51:45;5.10;88.50
68217;DHT22;55037;52.354;4.992;2023-03-01T07:54:12;5.10;87.80
68217;DHT22;55037;52.354;4.992;2023-03-01T07:56:39;5.60;87.40
68217;DHT22;55037;52.354;4.992;2023-03-01T07:59:07;5.80;86.80
68217;DHT22;55037;52.354;4.992;2023-03-01T08:01:35;6.10;86.20
68217;DHT22;55037;52.354;4.992;2023-03-01T08:04:02;6.30;85.50
68217;DHT22;55037;52.354;4.992;2023-03-01T08:06:29;6.60;84.90
68217;DHT22;55037;52.354;4.992;2023-03-01T08:08:57;6.80;84.10
68217;DHT22;55037;52.354;4.992;2023-03-01T08:11:25;6.90;83.50
68217;DHT22;55037;52.354;4.992;2023-03-01T08:13:55;7.10;83.20
68217;DHT22;55037;52.354;4.992;2023-03-01T08:16:22;7.20;83.30
68217;DHT22;55037;52.354;4.992;2023-03-01T08:18:50;7.40;83.20
68217;DHT22;55037;52.354;4.992;2023-03-01T08:21:17;7.50;82.80
68217;DHT22;55037;52.354;4.992;2023-03-01T08:23:45;7.70;82.20
68217;DHT22;55037;52.354;4.992;2023-03-01T08:26:17;7.70;82.50
68217;DHT22;55037;52.354;4.992;2023-03-01T08:28:46;8.10;83.30
68217;DHT22;55037;52.354;4.992;2023-03-01T08:31:20;8.60;82.50
68217;DHT22;55037;52.354;4.992;2023-03-01T08:33:49;9.20;81.60
68217;DHT22;55037;52.354;4.992;2023-03-01T08:36:23;10.20;79.80
68217;DHT22;55037;52.354;4.992;2023-03-01T08:38:51;11.20;76.20
68217;DHT22;55037;52.354;4.992;2023-03-01T08:41:19;11.80;74.20
68217;DHT22;55037;52.354;4.992;2023-03-01T08:43:46;12.10;73.70
68217;DHT22;55037;52.354;4.992;2023-03-01T08:46:14;12.60;72.80
68217;DHT22;55037;52.354;4.992;2023-03-01T08:48:41;12.80;71.50
68217;DHT22;55037;52.354;4.992;2023-03-01T08:51:18;12.70;71.40
68217;DHT22;55037;52.354;4.992;2023-03-01T08:53:46;12.40;72.50
68217;DHT22;55037;52.354;4.992;2023-03-01T08:56:14;12.10;72.90
68217;DHT22;55037;52.354;4.992;2023-03-01T08:58:48;12.10;73.40
68217;DHT22;55037;52.354;4.992;2023-03-01T09:01:17;12.00;74.10
68217;DHT22;55037;52.354;4.992;2023-03-01T09:03:45;12.10;74.10
68217;DHT22;55037;52.354;4.992;2023-03-01T09:06:13;12.40;73.60
68217;DHT22;55037;52.354;4.992;2023-03-01T09:08:43;12.50;73.20
68217;DHT22;55037;52.354;4.992;2023-03-01T09:11:13;12.70;73.20
68217;DHT22;55037;52.354;4.992;2023-03-01T09:13:40;12.90;71.70
68217;DHT22;55037;52.354;4.992;2023-03-01T09:16:11;13.00;72.10
68217;DHT22;55037;52.354;4.992;2023-03-01T09:18:39;13.40;70.50
68217;DHT22;55037;52.354;4.992;2023-03-01T09:21:07;13.70;69.10
68217;DHT22;55037;52.354;4.992;2023-03-01T09:23:40;14.10;68.10
68217;DHT22;55037;52.354;4.992;2023-03-01T09:26:13;14.60;66.30
68217;DHT22;55037;52.354;4.992;2023-03-01T09:28:41;14.70;65.00
68217;DHT22;55037;52.354;4.992;2023-03-01T09:31:09;14.50;63.30
68217;DHT22;55037;52.354;4.992;2023-03-01T09:33:36;14.00;64.20
68217;DHT22;55037;52.354;4.992;2023-03-01T09:36:05;13.50;64.90
68217;DHT22;55037;52.354;4.992;2023-03-01T09:38:34;13.20;65.80
68217;DHT22;55037;52.354;4.992;2023-03-01T09:41:01;13.00;67.20
68217;DHT22;55037;52.354;4.992;2023-03-01T09:43:53;13.40;68.60
68217;DHT22;55037;52.354;4.992;2023-03-01T09:46:25;14.90;66.30
68217;DHT22;55037;52.354;4.992;2023-03-01T09:49:10;16.10;58.70
68217;DHT22;55037;52.354;4.992;2023-03-01T09:51:39;16.00;57.30
68217;DHT22;55037;52.354;4.992;2023-03-01T09:54:09;15.70;59.40
68217;DHT22;55037;52.354;4.992;2023-03-01T09:56:45;15.50;59.10
68217;DHT22;55037;52.354;4.992;2023-03-01T10:01:59;14.50;60.10
68217;DHT22;55037;52.354;4.992;2023-03-01T10:04:45;13.70;62.30
68217;DHT22;55037;52.354;4.992;2023-03-01T10:10:28;12.40;66.60
68217;DHT22;55037;52.354;4.992;2023-03-01T10:13:02;13.00;71.50
68217;DHT22;55037;52.354;4.992;2023-03-01T10:15:36;15.10;63.30
68217;DHT22;55037;52.354;4.992;2023-03-01T10:18:16;15.60;59.10
68217;DHT22;55037;52.354;4.992;2023-03-01T10:20:59;17.50;62.10
68217;DHT22;55037;52.354;4.992;2023-03-01T10:23:30;22.30;47.40
68217;DHT22;55037;52.354;4.992;2023-03-01T10:27:01;26.20;38.40
68217;DHT22;55037;52.354;4.992;2023-03-01T10:29:10;28.60;33.60
68217;DHT22;55037;52.354;4.992;2023-03-01T10:31:43;30.50;31.50
68217;DHT22;55037;52.354;4.992;2023-03-01T10:34:17;32.30;29.40
68217;DHT22;55037;52.354;4.992;2023-03-01T10:36:48;34.00;27.70
68217;DHT22;55037;52.354;4.992;2023-03-01T10:39:18;35.30;26.50
68217;DHT22;55037;52.354;4.992;2023-03-01T10:41:59;36.10;25.50
68217;DHT22;55037;52.354;4.992;2023-03-01T10:47:17;37.60;24.80
68217;DHT22;55037;52.354;4.992;2023-03-01T10:50:03;37.70;24.80
68217;DHT22;55037;52.354;4.992;2023-03-01T10:52:36;38.00;24.60
68217;DHT22;55037;52.354;4.992;2023-03-01T10:57:40;38.00;24.30
68217;DHT22;55037;52.354;4.992;2023-03-01T11:05:26;38.70;23.10
68217;DHT22;55037;52.354;4.992;2023-03-01T11:07:57;38.80;22.90
68217;DHT22;55037;52.354;4.992;2023-03-01T11:10:33;38.90;22.60
68217;DHT22;55037;52.354;4.992;2023-03-01T11:13:16;39.30;22.20
68217;DHT22;55037;52.354;4.992;2023-03-01T11:16:03;39.30;21.70
68217;DHT22;55037;52.354;4.992;2023-03-01T11:18:32;39.30;21.70
68217;DHT22;55037;52.354;4.992;2023-03-01T11:21:15;39.70;21.50
68217;DHT22;55037;52.354;4.992;2023-03-01T11:23:45;40.20;20.90
68217;DHT22;55037;52.354;4.992;2023-03-01T11:26:15;40.40;19.90
68217;DHT22;55037;52.354;4.992;2023-03-01T11:28:44;40.00;19.70
68217;DHT22;55037;52.354;4.992;2023-03-01T11:31:16;39.60;19.40
68217;DHT22;55037;52.354;4.992;2023-03-01T11:34:14;39.60;19.40
68217;DHT22;55037;52.354;4.992;2023-03-01T11:36:56;39.50;19.60
68217;DHT22;55037;52.354;4.992;2023-03-01T11:39:31;39.90;19.10
68217;DHT22;55037;52.354;4.992;2023-03-01T11:44:59;40.50;18.30
68217;DHT22;55037;52.354;4.992;2023-03-01T11:50:30;41.10;17.60
68217;DHT22;55037;52.354;4.992;2023-03-01T11:55:46;40.80;16.20
68217;DHT22;55037;52.354;4.992;2023-03-01T12:05:16;40.30;15.40
68217;DHT22;55037;52.354;4.992;2023-03-01T12:08:01;40.10;14.90
68217;DHT22;55037;52.354;4.992;2023-03-01T12:10:53;40.20;15.00
68217;DHT22;55037;52.354;4.992;2023-03-01T12:16:29;40.00;14.00
68217;DHT22;55037;52.354;4.992;2023-03-01T12:19:21;39.80;14.10
68217;DHT22;55037;52.354;4.992;2023-03-01T12:24:46;39.20;14.20
68217;DHT22;55037;52.354;4.992;2023-03-01T12:36:06;38.60;13.50
68217;DHT22;55037;52.354;4.992;2023-03-01T12:39:04;38.10;13.80
68217;DHT22;55037;52.354;4.992;2023-03-01T12:47:14;38.20;13.30
68217;DHT22;55037;52.354;4.992;2023-03-01T12:49:54;37.80;13.20
68217;DHT22;55037;52.354;4.992;2023-03-01T12:52:37;37.30;13.20
68217;DHT22;55037;52.354;4.992;2023-03-01T12:55:19;37.10;13.40
68217;DHT22;55037;52.354;4.992;2023-03-01T12:58:05;36.90;13.40
68217;DHT22;55037;52.354;4.992;2023-03-01T13:00:41;36.70;13.50
68217;DHT22;55037;52.354;4.992;2023-03-01T13:06:19;36.80;13.80
68217;DHT22;55037;52.354;4.992;2023-03-01T13:11:57;36.80;14.00
68217;DHT22;55037;52.354;4.992;2023-03-01T13:16:53;36.50;14.30
68217;DHT22;55037;52.354;4.992;2023-03-01T13:19:22;36.50;14.40
68217;DHT22;55037;52.354;4.992;2023-03-01T13:21:52;36.60;14.30
68217;DHT22;55037;52.354;4.992;2023-03-01T13:24:28;36.60;14.40
68217;DHT22;55037;52.354;4.992;2023-03-01T13:32:28;35.20;15.20
68217;DHT22;55037;52.354;4.992;2023-03-01T13:37:47;33.80;15.00
68217;DHT22;55037;52.354;4.992;2023-03-01T13:42:51;33.60;15.10
68217;DHT22;55037;52.354;4.992;2023-03-01T13:45:36;33.50;15.10
68217;DHT22;55037;52.354;4.992;2023-03-01T13:48:18;33.40;15.20
68217;DHT22;55037;52.354;4.992;2023-03-01T13:51:12;33.40;15.40
68217;DHT22;55037;52.354;4.992;2023-03-01T13:53:43;33.40;15.50
68217;DHT22;55037;52.354;4.992;2023-03-01T13:56:27;33.50;15.40
68217;DHT22;55037;52.354;4.992;2023-03-01T13:58:59;33.30;15.40
68217;DHT22;55037;52.354;4.992;2023-03-01T14:01:34;33.40;15.60
68217;DHT22;55037;52.354;4.992;2023-03-01T14:04:14;33.30;15.50
68217;DHT22;55037;52.354;4.992;2023-03-01T14:06:44;33.30;15.40
68217;DHT22;55037;52.354;4.992;2023-03-01T14:09:24;33.30;15.50
68217;DHT22;55037;52.354;4.992;2023-03-01T14:17:42;32.00;15.90
68217;DHT22;55037;52.354;4.992;2023-03-01T14:20:24;31.60;16.00
68217;DHT22;55037;52.354;4.992;2023-03-01T14:23:08;31.30;16.30
68217;DHT22;55037;52.354;4.992;2023-03-01T14:25:37;31.00;16.50
68217;DHT22;55037;52.354;4.992;2023-03-01T14:28:16;30.60;16.80
68217;DHT22;55037;52.354;4.992;2023-03-01T14:30:49;29.40;16.80
68217;DHT22;55037;52.354;4.992;2023-03-01T14:33:24;27.70;17.50
68217;DHT22;55037;52.354;4.992;2023-03-01T14:36:00;26.80;18.40
68217;DHT22;55037;52.354;4.992;2023-03-01T14:38:43;26.40;18.90
68217;DHT22;55037;52.354;4.992;2023-03-01T14:41:22;26.20;19.40
68217;DHT22;55037;52.354;4.992;2023-03-01T14:44:14;25.90;19.60
68217;DHT22;55037;52.354;4.992;2023-03-01T14:46:44;25.80;19.80
68217;DHT22;55037;52.354;4.992;2023-03-01T14:49:24;25.70;20.20
68217;DHT22;55037;52.354;4.992;2023-03-01T14:52:04;25.70;20.20
68217;DHT22;55037;52.354;4.992;2023-03-01T14:54:44;25.50;20.00
68217;DHT22;55037;52.354;4.992;2023-03-01T14:57:16;25.30;20.20
68217;DHT22;55037;52.354;4.992;2023-03-01T14:59:44;25.00;20.30
68217;DHT22;55037;52.354;4.992;2023-03-01T15:02:17;24.70;20.50
68217;DHT22;55037;52.354;4.992;2023-03-01T15:04:55;24.20;20.80
68217;DHT22;55037;52.354;4.992;2023-03-01T15:07:34;23.80;21.50
68217;DHT22;55037;52.354;4.992;2023-03-01T15:10:06;23.60;21.50
68217;DHT22;55037;52.354;4.992;2023-03-01T15:12:42;23.40;21.90
68217;DHT22;55037;52.354;4.992;2023-03-01T15:15:20;23.10;22.10
68217;DHT22;55037;52.354;4.992;2023-03-01T15:20:40;22.60;22.60
68217;DHT22;55037;52.354;4.992;2023-03-01T15:23:26;22.30;23.00
68217;DHT22;55037;52.354;4.992;2023-03-01T15:25:55;21.90;23.20
68217;DHT22;55037;52.354;4.992;2023-03-01T15:28:30;21.60;23.50
68217;DHT22;55037;52.354;4.992;2023-03-01T15:31:02;21.40;23.80
68217;DHT22;55037;52.354;4.992;2023-03-01T15:33:37;21.30;24.10
68217;DHT22;55037;52.354;4.992;2023-03-01T15:36:36;20.50;24.00
68217;DHT22;55037;52.354;4.992;2023-03-01T15:39:22;20.40;24.90
68217;DHT22;55037;52.354;4.992;2023-03-01T15:41:52;20.10;25.30
68217;DHT22;55037;52.354;4.992;2023-03-01T15:44:31;19.80;25.70
68217;DHT22;55037;52.354;4.992;2023-03-01T15:47:26;19.60;25.80
68217;DHT22;55037;52.354;4.992;2023-03-01T15:49:54;19.50;26.20
68217;DHT22;55037;52.354;4.992;2023-03-01T15:52:33;19.40;26.20
68217;DHT22;55037;52.354;4.992;2023-03-01T15:55:06;19.10;26.40
68217;DHT22;55037;52.354;4.992;2023-03-01T15:57:34;18.90;27.40
68217;DHT22;55037;52.354;4.992;2023-03-01T16:00:01;18.60;26.80
68217;DHT22;55037;52.354;4.992;2023-03-01T16:02:38;18.30;27.10
68217;DHT22;55037;52.354;4.992;2023-03-01T16:05:32;18.10;27.50
68217;DHT22;55037;52.354;4.992;2023-03-01T16:07:58;17.80;27.80
68217;DHT22;55037;52.354;4.992;2023-03-01T16:10:25;17.60;28.20
68217;DHT22;55037;52.354;4.992;2023-03-01T16:12:53;17.30;28.60
68217;DHT22;55037;52.354;4.992;2023-03-01T16:15:24;17.10;29.00
68217;DHT22;55037;52.354;4.992;2023-03-01T16:17:56;16.90;29.70
68217;DHT22;55037;52.354;4.992;2023-03-01T16:20:25;16.70;30.00
68217;DHT22;55037;52.354;4.992;2023-03-01T16:23:00;16.60;30.20
68217;DHT22;55037;52.354;4.992;2023-03-01T16:25:29;16.50;30.50
68217;DHT22;55037;52.354;4.992;2023-03-01T16:27:56;16.40;30.60
68217;DHT22;55037;52.354;4.992;2023-03-01T16:30:25;16.20;30.70
68217;DHT22;55037;52.354;4.992;2023-03-01T16:32:53;16.00;30.80
68217;DHT22;55037;52.354;4.992;2023-03-01T16:35:21;15.70;31.40
68217;DHT22;55037;52.354;4.992;2023-03-01T16:37:49;15.40;32.00
68217;DHT22;55037;52.354;4.992;2023-03-01T16:40:25;15.10;32.30
68217;DHT22;55037;52.354;4.992;2023-03-01T16:42:54;14.80;33.00
68217;DHT22;55037;52.354;4.992;2023-03-01T16:45:33;14.50;33.60
68217;DHT22;55037;52.354;4.992;2023-03-01T16:48:03;14.30;34.50
68217;DHT22;55037;52.354;4.992;2023-03-01T16:50:31;13.90;35.20
68217;DHT22;55037;52.354;4.992;2023-03-01T16:52:58;13.60;35.80
68217;DHT22;55037;52.354;4.992;2023-03-01T16:55:25;13.30;36.30
68217;DHT22;55037;52.354;4.992;2023-03-01T16:57:52;12.90;36.80
68217;DHT22;55037;52.354;4.992;2023-03-01T17:00:20;12.60;37.60
68217;DHT22;55037;52.354;4.992;2023-03-01T17:02:47;12.30;38.10
68217;DHT22;55037;52.354;4.992;2023-03-01T17:05:15;12.00;38.70
68217;DHT22;55037;52.354;4.992;2023-03-01T17:07:42;11.70;39.60
68217;DHT22;55037;52.354;4.992;2023-03-01T17:10:10;11.40;40.00
68217;DHT22;55037;52.354;4.992;2023-03-01T17:12:38;11.10;41.10
68217;DHT22;55037;52.354;4.992;2023-03-01T17:15:06;10.70;41.60
68217;DHT22;55037;52.354;4.992;2023-03-01T17:17:33;10.40;42.10
68217;DHT22;55037;52.354;4.992;2023-03-01T17:20:01;10.10;42.90
68217;DHT22;55037;52.354;4.992;2023-03-01T17:22:31;9.90;43.50
68217;DHT22;55037;52.354;4.992;2023-03-01T17:24:58;9.70;43.90
68217;DHT22;55037;52.354;4.992;2023-03-01T17:27:25;9.50;45.00
68217;DHT22;55037;52.354;4.992;2023-03-01T17:29:52;9.30;45.40
68217;DHT22;55037;52.354;4.992;2023-03-01T17:32:19;9.10;46.20
68217;DHT22;55037;52.354;4.992;2023-03-01T17:34:47;8.90;47.40
68217;DHT22;55037;52.354;4.992;2023-03-01T17:37:14;8.80;48.40